createdAt,value
2023-05-11T00:02:39.380Z,2.38
2023-05-11T00:05:42.671Z,2.37
2023-05-11T00:08:45.772Z,2.45
2023-05-11T00:11:48.897Z,2.40
2023-05-11T00:14:51.964Z,2.65
2023-05-11T00:17:55.418Z,3.13
2023-05-11T00:20:59.007Z,2.87
2023-05-11T00:24:02.130Z,2.00
2023-05-11T00:27:06.140Z,2.58
2023-05-11T00:30:10.254Z,2.88
2023-05-11T00:33:13.229Z,2.97
2023-05-11T00:36:16.140Z,2.60
2023-05-11T00:39:19.182Z,3.13
2023-05-11T00:42:22.362Z,3.05
2023-05-11T00:45:26.124Z,3.10
2023-05-11T00:48:29.224Z,3.25
2023-05-11T00:51:33.242Z,3.00
2023-05-11T00:54:39.606Z,2.92
2023-05-11T00:57:42.765Z,3.33
2023-05-11T01:00:47.991Z,3.35
2023-05-11T01:03:51.382Z,3.33
2023-05-11T01:07:14.498Z,2.73
2023-05-11T01:10:34.337Z,2.45
2023-05-11T01:14:03.853Z,3.00
2023-05-11T01:17:17.181Z,2.28
2023-05-11T01:20:25.764Z,3.50
2023-05-11T01:23:37.500Z,3.40
2023-05-11T01:27:07.217Z,3.45
2023-05-11T01:30:49.662Z,3.10
2023-05-11T01:34:09.478Z,3.03
2023-05-11T01:37:21.592Z,2.42
2023-05-11T01:40:27.946Z,2.50
2023-05-11T01:43:40.246Z,2.17
2023-05-11T01:46:44.106Z,2.00
2023-05-11T01:49:47.907Z,2.50
2023-05-11T01:52:52.790Z,2.47
2023-05-11T01:55:57.239Z,2.07
2023-05-11T01:59:01.114Z,2.85
2023-05-11T02:02:04.771Z,2.55
2023-05-11T02:05:09.327Z,2.30
2023-05-11T02:08:14.520Z,2.67
2023-05-11T02:11:18.493Z,2.80
2023-05-11T02:14:24.947Z,2.63
2023-05-11T02:17:29.463Z,2.60
2023-05-11T02:20:34.445Z,3.05
2023-05-11T02:23:37.738Z,2.78
2023-05-11T02:26:40.798Z,2.93
2023-05-11T02:29:46.881Z,2.90
2023-05-11T02:32:56.747Z,2.70
2023-05-11T02:36:02.517Z,2.95
2023-05-11T02:39:12.883Z,2.47
2023-05-11T02:42:22.976Z,3.27
2023-05-11T02:45:33.752Z,3.15
2023-05-11T02:48:45.705Z,3.13
2023-05-11T02:51:51.065Z,3.60
2023-05-11T02:54:55.249Z,4.15
2023-05-11T02:57:59.017Z,3.43
2023-05-11T03:01:06.691Z,3.28
2023-05-11T03:04:10.042Z,3.45
2023-05-11T03:07:13.265Z,3.03
2023-05-11T03:10:16.492Z,3.13
2023-05-11T03:13:23.104Z,3.40
2023-05-11T03:16:30.069Z,2.50
2023-05-11T03:19:33.685Z,2.60
2023-05-11T03:22:38.086Z,3.60
2023-05-11T03:25:43.783Z,3.13
2023-05-11T03:28:47.928Z,3.70
2023-05-11T03:31:55.632Z,3.78
2023-05-11T03:35:00.042Z,3.58
2023-05-11T03:38:06.412Z,2.67
2023-05-11T03:41:09.817Z,3.22
2023-05-11T03:44:15.096Z,3.37
2023-05-11T03:47:20.669Z,2.90
2023-05-11T03:50:24.392Z,3.70
2023-05-11T03:53:28.160Z,3.25
2023-05-11T03:56:31.362Z,3.92
2023-05-11T03:59:34.317Z,3.33
2023-05-11T04:02:37.983Z,3.88
2023-05-11T04:05:41.545Z,4.03
2023-05-11T04:08:47.631Z,3.70
2023-05-11T04:11:51.077Z,3.65
2023-05-11T04:14:54.176Z,3.77
2023-05-11T04:17:57.865Z,4.30
2023-05-11T04:21:01.452Z,4.22
2023-05-11T04:24:04.764Z,3.83
2023-05-11T04:27:07.766Z,3.53
2023-05-11T04:30:11.058Z,3.57
2023-05-11T04:33:14.676Z,4.07
2023-05-11T04:36:17.810Z,4.72
2023-05-11T04:39:21.782Z,3.92
2023-05-11T04:42:25.068Z,3.63
2023-05-11T04:45:30.772Z,3.53
2023-05-11T04:51:51.098Z,3.75
2023-05-11T04:54:54.391Z,4.25
2023-05-11T04:57:57.556Z,3.63
2023-05-11T05:01:01.007Z,3.07
2023-05-11T05:04:07.051Z,3.38
2023-05-11T05:07:10.753Z,3.42
2023-05-11T05:10:14.753Z,3.30
2023-05-11T05:13:18.293Z,3.42
2023-05-11T05:16:21.635Z,2.37
2023-05-11T05:19:24.992Z,2.85
2023-05-11T05:22:28.518Z,2.70
2023-05-11T05:25:32.793Z,2.65
2023-05-11T05:28:36.392Z,3.13
2023-05-11T05:31:40.662Z,2.83
2023-05-11T05:34:49.554Z,2.67
2023-05-11T05:37:53.061Z,2.90
2023-05-11T05:40:56.629Z,2.58
2023-05-11T05:44:00.828Z,2.67
2023-05-11T05:47:04.510Z,2.87
2023-05-11T05:50:10.063Z,2.90
2023-05-11T05:53:14.157Z,3.20
2023-05-11T05:56:17.314Z,2.70
2023-05-11T05:59:23.615Z,2.72
2023-05-11T06:02:31.436Z,2.83
2023-05-11T06:05:35.568Z,3.20
2023-05-11T06:08:39.227Z,3.40
2023-05-11T06:11:42.449Z,3.25
2023-05-11T06:14:45.374Z,3.35
2023-05-11T06:17:48.893Z,3.20
2023-05-11T06:20:51.984Z,3.17
2023-05-11T06:23:55.571Z,3.03
2023-05-11T06:27:00.246Z,2.33
2023-05-11T06:30:03.804Z,2.80
2023-05-11T06:33:11.376Z,2.87
2023-05-11T06:36:16.513Z,2.60
2023-05-11T06:39:21.237Z,2.75
2023-05-11T06:42:24.656Z,3.55
2023-05-11T06:45:29.996Z,2.55
2023-05-11T06:48:34.311Z,3.03
2023-05-11T06:51:38.156Z,2.67
2023-05-11T06:54:41.279Z,2.80
2023-05-11T06:57:49.399Z,2.45
2023-05-11T07:00:53.891Z,2.75
2023-05-11T07:03:57.362Z,2.30
2023-05-11T07:07:00.687Z,1.88
2023-05-11T07:10:03.829Z,2.47
2023-05-11T07:13:06.950Z,2.53
2023-05-11T07:16:17.509Z,2.60
2023-05-11T07:19:20.861Z,2.27
2023-05-11T07:22:23.940Z,2.58
2023-05-11T07:25:27.250Z,2.70
2023-05-11T07:28:31.025Z,2.85
2023-05-11T07:31:35.905Z,2.67
2023-05-11T07:34:41.284Z,2.83
2023-05-11T07:37:44.880Z,1.73
2023-05-11T07:40:48.300Z,2.67
2023-05-11T07:43:51.524Z,2.58
2023-05-11T07:46:55.261Z,2.40
2023-05-11T07:49:58.939Z,2.07
2023-05-11T07:53:02.393Z,2.60
2023-05-11T07:56:06.844Z,2.63
2023-05-11T07:59:10.455Z,2.20
2023-05-11T08:02:14.364Z,2.20
2023-05-11T08:05:18.183Z,2.30
2023-05-11T08:08:22.191Z,2.15
2023-05-11T08:11:25.329Z,1.88
2023-05-11T08:14:28.815Z,2.08
2023-05-11T08:17:32.728Z,2.60
2023-05-11T08:20:39.373Z,2.23
2023-05-11T08:23:44.623Z,2.30
2023-05-11T08:26:48.730Z,2.22
2023-05-11T08:29:52.340Z,1.98
2023-05-11T08:32:58.942Z,1.90
2023-05-11T08:36:04.072Z,2.00
2023-05-11T08:39:07.420Z,1.73
2023-05-11T08:42:10.691Z,2.58
2023-05-11T08:45:14.021Z,1.95
2023-05-11T08:48:19.078Z,1.65
2023-05-11T08:51:23.793Z,1.83
2023-05-11T08:54:31.718Z,1.67
2023-05-11T08:57:36.358Z,1.98
2023-05-11T09:00:40.022Z,1.75
2023-05-11T09:03:46.877Z,1.52
2023-05-11T09:06:51.120Z,1.67
2023-05-11T09:09:55.191Z,2.05
2023-05-11T09:12:58.798Z,2.28
2023-05-11T09:16:02.086Z,2.30
2023-05-11T09:19:05.695Z,2.05
2023-05-11T09:22:08.764Z,2.13
2023-05-11T09:25:17.766Z,1.92
2023-05-11T09:28:25.535Z,2.33
2023-05-11T09:31:47.355Z,1.80
2023-05-11T09:34:52.205Z,2.20
2023-05-11T09:38:06.164Z,1.67
2023-05-11T09:41:09.294Z,1.90
2023-05-11T09:44:14.861Z,1.48
2023-05-11T09:47:21.257Z,1.65
2023-05-11T09:50:26.201Z,2.13
2023-05-11T09:53:41.305Z,1.77
2023-05-11T09:57:00.454Z,1.60
2023-05-11T10:00:05.851Z,1.90
2023-05-11T10:03:15.171Z,1.95
2023-05-11T10:06:20.323Z,1.50
2023-05-11T10:09:28.636Z,1.17
2023-05-11T10:12:33.856Z,1.33
2023-05-11T10:15:37.572Z,1.90
2023-05-11T10:18:43.751Z,1.40
2023-05-11T10:21:47.167Z,1.52
2023-05-11T10:24:51.666Z,1.50
2023-05-11T10:27:55.472Z,1.75
2023-05-11T10:30:59.814Z,1.52
2023-05-11T10:34:04.991Z,1.40
2023-05-11T10:37:09.262Z,1.88
2023-05-11T10:40:13.686Z,1.80
2023-05-11T10:43:36.079Z,1.48
2023-05-11T10:46:53.359Z,1.40
2023-05-11T10:50:14.708Z,2.00
2023-05-11T10:53:36.226Z,1.58
2023-05-11T10:57:11.512Z,2.27
2023-05-11T11:00:36.084Z,1.50
2023-05-11T11:03:39.452Z,1.75
2023-05-11T11:06:44.159Z,1.75
2023-05-11T11:09:56.719Z,1.77
2023-05-11T11:13:10.677Z,1.53
2023-05-11T11:16:16.346Z,1.70
2023-05-11T11:19:29.010Z,1.33
2023-05-11T11:22:35.446Z,1.50
2023-05-11T11:25:53.977Z,1.70
2023-05-11T11:29:03.046Z,1.50
2023-05-11T11:32:24.432Z,1.88
2023-05-11T11:35:42.853Z,1.65
2023-05-11T11:39:00.345Z,1.63
2023-05-11T11:42:13.516Z,1.50
2023-05-11T11:45:31.174Z,2.00
2023-05-11T11:48:39.129Z,2.20
2023-05-11T11:51:42.463Z,1.75
2023-05-11T11:54:45.648Z,1.88
2023-05-11T11:57:51.516Z,1.75
2023-05-11T12:00:55.233Z,1.90
2023-05-11T12:04:04.620Z,2.03
2023-05-11T12:07:10.108Z,2.10
2023-05-11T12:10:15.158Z,1.83
2023-05-11T12:13:19.831Z,1.80
2023-05-11T12:16:23.272Z,1.63
2023-05-11T12:19:26.536Z,1.90
2023-05-11T12:22:29.873Z,1.73
2023-05-11T12:25:33.064Z,1.63
2023-05-11T12:28:36.581Z,1.90
2023-05-11T12:31:41.781Z,1.73
2023-05-11T12:34:59.465Z,1.55
2023-05-11T12:38:02.919Z,1.73
2023-05-11T12:41:06.348Z,2.00
2023-05-11T12:44:09.828Z,1.52
2023-05-11T12:47:13.364Z,1.80
2023-05-11T12:50:20.420Z,1.98
2023-05-11T12:53:23.500Z,2.22
2023-05-11T12:56:26.653Z,2.10
2023-05-11T12:59:37.836Z,1.90
2023-05-11T13:02:50.431Z,1.97
2023-05-11T13:06:10.775Z,2.25
2023-05-11T13:09:22.981Z,1.85
2023-05-11T13:12:28.872Z,1.58
2023-05-11T13:15:33.875Z,2.30
2023-05-11T13:18:37.267Z,1.80
2023-05-11T13:21:40.323Z,1.73
2023-05-11T13:24:44.020Z,1.65
2023-05-11T13:27:47.952Z,1.65
2023-05-11T13:30:58.939Z,2.05
2023-05-11T13:34:02.774Z,1.67
2023-05-11T13:37:06.023Z,2.33
2023-05-11T13:40:10.743Z,2.72
2023-05-11T13:43:14.070Z,2.03
2023-05-11T13:46:16.881Z,2.10
2023-05-11T13:49:20.050Z,1.60
2023-05-11T13:52:23.469Z,2.28
2023-05-11T13:55:26.915Z,1.75
2023-05-11T13:58:30.618Z,1.73
2023-05-11T14:01:34.212Z,2.33
2023-05-11T14:04:42.105Z,1.83
2023-05-11T14:07:48.115Z,2.22
2023-05-11T14:10:52.353Z,1.95
2023-05-11T14:13:55.488Z,2.03
2023-05-11T14:16:59.416Z,1.90
2023-05-11T14:20:03.608Z,1.90
2023-05-11T14:23:06.753Z,2.55
2023-05-11T14:26:09.880Z,1.70
2023-05-11T14:29:12.933Z,1.60
2023-05-11T14:32:16.951Z,2.10
2023-05-11T14:35:20.817Z,1.57
2023-05-11T14:38:24.392Z,1.67
2023-05-11T14:41:27.688Z,2.08
2023-05-11T14:44:31.414Z,1.95
2023-05-11T14:47:34.667Z,2.05
2023-05-11T14:50:37.729Z,2.03
2023-05-11T14:53:40.996Z,2.00
2023-05-11T14:56:46.469Z,2.00
2023-05-11T14:59:58.904Z,2.72
2023-05-11T15:03:03.278Z,2.67
2023-05-11T15:06:07.518Z,2.33
2023-05-11T15:09:10.720Z,2.63
2023-05-11T15:12:13.934Z,2.30
2023-05-11T15:15:17.144Z,2.35
2023-05-11T15:18:20.492Z,2.83
2023-05-11T15:21:23.749Z,2.03
2023-05-11T15:24:26.928Z,2.00
2023-05-11T15:27:31.069Z,2.58
2023-05-11T15:30:33.987Z,2.22
2023-05-11T15:33:37.375Z,2.20
2023-05-11T15:36:40.775Z,2.10
2023-05-11T15:39:43.793Z,2.05
2023-05-11T15:42:46.890Z,2.00
2023-05-11T15:45:50.245Z,2.00
2023-05-11T15:48:53.688Z,2.10
2023-05-11T15:51:57.045Z,2.23
2023-05-11T15:55:00.359Z,2.28
2023-05-11T15:58:07.798Z,2.17
2023-05-11T16:01:10.814Z,1.65
2023-05-11T16:04:14.505Z,2.10
2023-05-11T16:07:18.813Z,2.13
2023-05-11T16:10:22.187Z,2.17
2023-05-11T16:13:25.510Z,2.00
2023-05-11T16:16:29.130Z,2.10
2023-05-11T16:19:32.976Z,1.90
2023-05-11T16:22:37.374Z,2.50
2023-05-11T16:25:43.171Z,2.17
2023-05-11T16:28:46.677Z,2.10
2023-05-11T16:31:49.928Z,2.13
2023-05-11T16:34:53.710Z,2.55
2023-05-11T16:37:59.844Z,1.97
2023-05-11T16:41:04.058Z,2.50
2023-05-11T16:44:09.211Z,1.90
2023-05-11T16:47:12.619Z,2.00
2023-05-11T16:50:17.187Z,1.85
2023-05-11T16:53:23.538Z,1.87
2023-05-11T16:56:27.103Z,1.98
2023-05-11T16:59:33.410Z,2.17
2023-05-11T17:02:37.381Z,2.17
2023-05-11T17:05:41.795Z,2.42
2023-05-11T17:08:45.501Z,2.43
2023-05-11T17:11:48.861Z,2.30
2023-05-11T17:14:52.086Z,2.70
2023-05-11T17:17:55.682Z,1.90
2023-05-11T17:20:58.949Z,2.90
2023-05-11T17:24:02.423Z,2.17
2023-05-11T17:27:05.668Z,2.45
2023-05-11T17:30:09.811Z,2.75
2023-05-11T17:33:13.560Z,2.25
2023-05-11T17:36:17.169Z,3.00
2023-05-11T17:39:20.755Z,2.30
2023-05-11T17:42:24.195Z,2.45
2023-05-11T17:45:27.740Z,2.85
2023-05-11T17:48:31.782Z,3.08
2023-05-11T17:51:34.959Z,2.25
2023-05-11T17:54:38.616Z,2.30
2023-05-11T17:57:42.255Z,2.42
2023-05-11T18:00:48.812Z,2.92
2023-05-11T18:03:52.874Z,2.53
2023-05-11T18:06:56.421Z,3.33
2023-05-11T18:10:00.202Z,3.03
2023-05-11T18:13:04.282Z,3.30
2023-05-11T18:16:07.570Z,2.85
2023-05-11T18:19:10.906Z,2.60
2023-05-11T18:22:14.351Z,2.80
2023-05-11T18:25:17.706Z,2.70
2023-05-11T18:28:20.750Z,2.90
2023-05-11T18:31:24.610Z,2.47
2023-05-11T18:34:28.291Z,3.38
2023-05-11T18:37:32.434Z,2.63
2023-05-11T18:40:36.887Z,3.37
2023-05-11T18:43:42.148Z,2.88
2023-05-11T18:46:45.592Z,2.55
2023-05-11T18:49:49.371Z,2.67
2023-05-11T18:52:53.170Z,3.28
2023-05-11T18:55:59.575Z,3.13
2023-05-11T18:59:03.320Z,3.03
2023-05-11T19:02:07.174Z,2.58
2023-05-11T19:05:11.088Z,2.88
2023-05-11T19:08:14.740Z,2.60
2023-05-11T19:11:18.457Z,2.40
2023-05-11T19:14:21.975Z,2.70
2023-05-11T19:17:25.715Z,2.80
2023-05-11T19:20:29.844Z,2.00
2023-05-11T19:23:33.965Z,2.85
2023-05-11T19:26:38.834Z,2.70
2023-05-11T19:29:42.833Z,2.22
2023-05-11T19:32:46.088Z,2.80
2023-05-11T19:35:49.276Z,2.22
2023-05-11T19:38:52.516Z,2.58
2023-05-11T19:41:56.351Z,2.23
2023-05-11T19:44:59.929Z,2.83
2023-05-11T19:48:03.788Z,3.00
2023-05-11T19:51:07.427Z,2.53
2023-05-11T19:54:11.697Z,2.70
2023-05-11T19:57:14.925Z,1.90
2023-05-11T20:00:18.909Z,1.98
2023-05-11T20:03:22.406Z,2.55
2023-05-11T20:06:25.907Z,2.00
2023-05-11T20:09:29.110Z,2.40
2023-05-11T20:12:32.147Z,2.10
2023-05-11T20:15:35.623Z,2.20
2023-05-11T20:18:38.630Z,2.65
2023-05-11T20:21:42.184Z,3.00
2023-05-11T20:24:45.450Z,2.25
2023-05-11T20:27:49.075Z,2.70
2023-05-11T20:30:52.480Z,2.17
2023-05-11T20:37:01.949Z,2.40
2023-05-11T20:40:06.797Z,2.42
2023-05-11T20:43:09.894Z,2.80
2023-05-11T20:46:15.887Z,2.22
2023-05-11T20:49:30.887Z,2.80
2023-05-11T20:52:41.139Z,2.63
2023-05-11T20:55:44.592Z,2.70
2023-05-11T20:58:48.140Z,2.10
2023-05-11T21:01:51.637Z,2.22
2023-05-11T21:05:01.605Z,2.47
2023-05-11T21:08:04.952Z,2.80
2023-05-11T21:11:08.132Z,2.80
2023-05-11T21:14:11.896Z,2.23
2023-05-11T21:17:15.297Z,2.33
2023-05-11T21:20:19.030Z,2.38
2023-05-11T21:23:22.824Z,2.22
2023-05-11T21:26:26.196Z,2.88
2023-05-11T21:29:29.945Z,2.97
2023-05-11T21:32:33.174Z,2.65
2023-05-11T21:35:36.655Z,2.25
2023-05-11T21:38:39.846Z,2.50
2023-05-11T21:41:43.060Z,2.63
2023-05-11T21:44:46.351Z,2.50
2023-05-11T21:47:50.237Z,2.75
2023-05-11T21:50:55.049Z,2.30
2023-05-11T21:53:58.856Z,2.40
2023-05-11T21:57:03.796Z,2.90
2023-05-11T22:00:09.350Z,2.37
2023-05-11T22:03:13.211Z,2.60
2023-05-11T22:06:16.949Z,2.47
2023-05-11T22:09:20.172Z,2.75
2023-05-11T22:12:23.462Z,2.40
2023-05-11T22:15:27.768Z,3.13
2023-05-11T22:18:30.937Z,2.38
2023-05-11T22:21:34.605Z,2.83
2023-05-11T22:24:38.343Z,2.63
2023-05-11T22:27:41.474Z,2.47
2023-05-11T22:30:45.182Z,2.70
2023-05-11T22:33:48.327Z,3.25
2023-05-11T22:36:51.504Z,2.63
2023-05-11T22:39:55.235Z,2.13
2023-05-11T22:42:58.737Z,2.63
2023-05-11T22:46:03.726Z,2.33
2023-05-11T22:49:08.505Z,1.85
2023-05-11T22:52:11.649Z,2.90
2023-05-11T22:55:14.987Z,2.83
2023-05-11T22:58:18.288Z,2.75
2023-05-11T23:01:21.229Z,2.10
2023-05-11T23:04:24.410Z,2.75
2023-05-11T23:07:27.682Z,2.40
2023-05-11T23:10:31.222Z,2.85
2023-05-11T23:13:34.369Z,3.15
2023-05-11T23:16:37.669Z,1.90
2023-05-11T23:19:40.986Z,2.53
2023-05-11T23:22:44.272Z,2.65
2023-05-11T23:25:47.589Z,2.42
2023-05-11T23:28:50.917Z,2.90
2023-05-11T23:31:54.584Z,3.03
2023-05-11T23:34:58.410Z,3.13
2023-05-11T23:38:02.184Z,2.42
2023-05-11T23:41:06.907Z,2.90
2023-05-11T23:44:10.368Z,2.42
2023-05-11T23:47:13.811Z,2.33
2023-05-11T23:50:17.439Z,1.95
2023-05-11T23:53:20.738Z,2.80
2023-05-11T23:56:24.477Z,3.10
2023-05-11T23:59:28.013Z,2.78
